createdAt,value
2023-03-18T00:00:34.445Z,68.62
2023-03-18T00:03:02.404Z,68.42
2023-03-18T00:05:31.038Z,67.83
2023-03-18T00:07:59.238Z,67.29
2023-03-18T00:10:27.322Z,67.35
2023-03-18T00:12:55.715Z,66.46
2023-03-18T00:15:23.388Z,65.33
2023-03-18T00:17:51.259Z,64.29
2023-03-18T00:20:28.989Z,64.06
2023-03-18T00:22:57.585Z,64.44
2023-03-18T00:25:25.467Z,65.30
2023-03-18T00:27:53.546Z,64.85
2023-03-18T00:30:43.940Z,66.15
2023-03-18T00:33:12.429Z,67.09
2023-03-18T00:35:39.741Z,68.28
2023-03-18T00:38:09.113Z,67.83
2023-03-18T00:40:53.736Z,68.72
2023-03-18T00:43:23.280Z,68.02
2023-03-18T00:45:51.571Z,68.02
2023-03-18T00:48:19.338Z,67.38
2023-03-18T00:50:47.505Z,68.45
2023-03-18T00:53:15.507Z,68.68
2023-03-18T00:55:43.709Z,69.44
2023-03-18T00:58:11.483Z,70.07
2023-03-18T01:00:40.012Z,69.61
2023-03-18T01:03:07.952Z,68.75
2023-03-18T01:05:35.817Z,68.29
2023-03-18T01:08:04.951Z,69.31
2023-03-18T01:10:42.013Z,67.96
2023-03-18T01:13:09.254Z,67.66
2023-03-18T01:15:37.319Z,67.62
2023-03-18T01:18:05.704Z,68.94
2023-03-18T01:20:34.064Z,69.30
2023-03-18T01:23:01.913Z,69.76
2023-03-18T01:25:29.863Z,70.80
2023-03-18T01:27:58.441Z,72.85
2023-03-18T01:30:26.726Z,73.47
2023-03-18T01:32:54.611Z,72.58
2023-03-18T01:35:22.518Z,73.16
2023-03-18T01:37:50.814Z,73.28
2023-03-18T01:40:19.868Z,75.73
2023-03-18T01:42:53.142Z,77.92
2023-03-18T01:45:26.406Z,77.78
2023-03-18T01:47:54.535Z,77.66
2023-03-18T01:50:23.192Z,75.56
2023-03-18T01:52:53.253Z,75.30
2023-03-18T01:55:21.921Z,74.14
2023-03-18T01:57:49.269Z,73.45
2023-03-18T02:00:17.656Z,73.75
2023-03-18T02:02:47.843Z,73.86
2023-03-18T02:05:18.651Z,73.31
2023-03-18T02:07:47.213Z,74.19
2023-03-18T02:10:16.955Z,74.97
2023-03-18T02:12:45.579Z,74.16
2023-03-18T02:15:17.812Z,74.88
2023-03-18T02:17:48.309Z,75.08
2023-03-18T02:20:34.377Z,75.17
2023-03-18T02:23:12.045Z,75.72
2023-03-18T02:26:09.385Z,75.63
2023-03-18T02:28:44.107Z,75.71
2023-03-18T02:31:12.700Z,76.01
2023-03-18T02:33:40.615Z,75.51
2023-03-18T02:36:15.263Z,76.41
2023-03-18T02:38:46.238Z,77.38
2023-03-18T02:41:18.558Z,77.48
2023-03-18T02:43:46.734Z,78.53
2023-03-18T02:46:31.780Z,78.22
2023-03-18T02:48:59.936Z,77.16
2023-03-18T02:51:28.292Z,77.88
2023-03-18T02:54:27.701Z,77.72
2023-03-18T02:56:55.727Z,77.75
2023-03-18T02:59:28.983Z,77.43
2023-03-18T03:01:57.235Z,79.18
2023-03-18T03:04:25.616Z,79.91
2023-03-18T03:06:54.467Z,79.96
2023-03-18T03:09:23.012Z,80.85
2023-03-18T03:11:50.540Z,80.91
2023-03-18T03:14:18.147Z,80.29
2023-03-18T03:16:46.836Z,80.83
2023-03-18T03:19:14.739Z,79.97
2023-03-18T03:21:42.894Z,80.00
2023-03-18T03:24:11.130Z,80.03
2023-03-18T03:26:38.813Z,79.73
2023-03-18T03:29:07.193Z,80.32
2023-03-18T03:31:35.597Z,80.85
2023-03-18T03:34:04.257Z,79.99
2023-03-18T03:36:33.074Z,80.17
2023-03-18T03:39:01.022Z,80.57
2023-03-18T03:41:29.468Z,80.55
2023-03-18T03:43:57.553Z,80.35
2023-03-18T03:46:26.382Z,78.69
2023-03-18T03:48:54.251Z,78.70
2023-03-18T03:51:22.366Z,79.26
2023-03-18T03:53:51.029Z,79.76
2023-03-18T03:56:18.744Z,78.74
2023-03-18T03:58:47.057Z,78.94
2023-03-18T04:01:15.432Z,78.77
2023-03-18T04:03:43.310Z,79.07
2023-03-18T04:06:11.216Z,78.59
2023-03-18T04:08:39.229Z,79.17
2023-03-18T04:11:07.786Z,79.04
2023-03-18T04:13:35.805Z,78.17
2023-03-18T04:16:04.116Z,78.37
2023-03-18T04:18:31.962Z,77.89
2023-03-18T04:21:00.234Z,77.63
2023-03-18T04:23:28.013Z,78.23
2023-03-18T04:25:55.663Z,78.80
2023-03-18T04:28:23.811Z,78.41
2023-03-18T04:30:52.332Z,78.65
2023-03-18T04:33:21.174Z,79.13
2023-03-18T04:35:48.999Z,79.65
2023-03-18T04:38:16.671Z,79.13
2023-03-18T04:40:45.652Z,79.67
2023-03-18T04:43:13.847Z,79.58
2023-03-18T04:45:41.871Z,80.51
2023-03-18T04:48:11.146Z,80.79
2023-03-18T04:50:38.794Z,79.96
2023-03-18T04:53:06.551Z,79.24
2023-03-18T04:55:35.078Z,79.96
2023-03-18T04:58:03.674Z,78.72
2023-03-18T05:00:31.876Z,77.98
2023-03-18T05:02:59.823Z,77.84
2023-03-18T05:05:28.380Z,78.11
2023-03-18T05:07:56.166Z,78.50
2023-03-18T05:10:24.241Z,79.50
2023-03-18T05:12:52.125Z,80.07
2023-03-18T05:15:20.434Z,79.29
2023-03-18T05:17:48.032Z,79.50
2023-03-18T05:20:15.724Z,78.83
2023-03-18T05:22:43.233Z,79.24
2023-03-18T05:25:12.023Z,79.66
2023-03-18T05:27:40.085Z,79.99
2023-03-18T05:30:11.260Z,79.54
2023-03-18T05:32:39.809Z,79.41
2023-03-18T05:35:08.160Z,79.66
2023-03-18T05:37:35.500Z,79.81
2023-03-18T05:40:04.614Z,80.12
2023-03-18T05:42:34.103Z,79.32
2023-03-18T05:45:03.043Z,79.65
2023-03-18T05:47:31.003Z,78.94
2023-03-18T05:49:58.954Z,79.38
2023-03-18T05:52:26.769Z,78.86
2023-03-18T05:54:54.439Z,79.35
2023-03-18T05:57:22.467Z,79.05
2023-03-18T05:59:49.966Z,78.72
2023-03-18T06:02:18.458Z,79.26
2023-03-18T06:04:47.918Z,79.41
2023-03-18T06:07:16.072Z,79.55
2023-03-18T06:09:44.718Z,80.05
2023-03-18T06:12:13.066Z,79.62
2023-03-18T06:14:40.978Z,80.17
2023-03-18T06:17:09.783Z,79.99
2023-03-18T06:19:38.215Z,79.98
2023-03-18T06:22:06.609Z,79.54
2023-03-18T06:24:35.001Z,79.99
2023-03-18T06:27:03.027Z,81.12
2023-03-18T06:29:30.609Z,80.59
2023-03-18T06:31:58.960Z,80.76
2023-03-18T06:34:27.102Z,80.61
2023-03-18T06:36:55.010Z,80.54
2023-03-18T06:39:23.163Z,80.91
2023-03-18T06:41:51.316Z,79.69
2023-03-18T06:44:19.383Z,78.86
2023-03-18T06:46:47.355Z,77.49
2023-03-18T06:49:15.820Z,76.92
2023-03-18T06:51:42.752Z,76.04
2023-03-18T06:54:10.772Z,74.63
2023-03-18T06:56:40.074Z,74.89
2023-03-18T06:59:08.147Z,74.49
2023-03-18T07:01:39.319Z,74.08
2023-03-18T07:04:08.230Z,74.24
2023-03-18T07:06:37.273Z,73.54
2023-03-18T07:09:05.091Z,72.55
2023-03-18T07:11:32.745Z,72.86
2023-03-18T07:14:00.730Z,73.10
2023-03-18T07:16:29.038Z,72.51
2023-03-18T07:18:59.167Z,72.43
2023-03-18T07:21:27.860Z,71.73
2023-03-18T07:23:55.901Z,70.80
2023-03-18T07:26:24.167Z,70.23
2023-03-18T07:28:52.454Z,69.60
2023-03-18T07:31:20.324Z,69.54
2023-03-18T07:33:48.859Z,68.75
2023-03-18T07:36:16.927Z,68.21
2023-03-18T07:38:44.097Z,67.65
2023-03-18T07:41:12.592Z,66.91
2023-03-18T07:43:40.954Z,66.77
2023-03-18T07:46:09.441Z,64.98
2023-03-18T07:48:37.485Z,64.33
2023-03-18T07:51:06.175Z,64.37
2023-03-18T07:53:34.123Z,63.68
2023-03-18T07:56:10.031Z,63.08
2023-03-18T07:58:38.781Z,63.23
2023-03-18T08:01:07.716Z,63.10
2023-03-18T08:03:36.101Z,62.49
2023-03-18T08:06:04.427Z,62.98
2023-03-18T08:08:32.390Z,61.85
2023-03-18T08:11:00.653Z,62.16
2023-03-18T08:13:31.286Z,60.31
2023-03-18T08:15:59.009Z,60.39
2023-03-18T08:18:27.218Z,60.50
2023-03-18T08:20:55.538Z,60.01
2023-03-18T08:23:23.844Z,59.59
2023-03-18T08:25:51.012Z,58.27
2023-03-18T08:28:19.337Z,56.99
2023-03-18T08:30:47.577Z,56.30
2023-03-18T08:33:15.934Z,56.50
2023-03-18T08:35:43.625Z,56.37
2023-03-18T08:38:10.797Z,56.82
2023-03-18T08:40:40.228Z,55.94
2023-03-18T08:43:08.356Z,55.73
2023-03-18T08:45:37.534Z,56.38
2023-03-18T08:48:06.084Z,56.41
2023-03-18T08:50:35.793Z,56.11
2023-03-18T08:53:03.808Z,55.36
2023-03-18T08:55:37.254Z,55.24
2023-03-18T08:58:07.927Z,54.68
2023-03-18T09:00:36.655Z,56.23
2023-03-18T09:03:05.653Z,55.62
2023-03-18T09:05:33.807Z,54.91
2023-03-18T09:08:01.874Z,55.24
2023-03-18T09:10:30.342Z,55.12
2023-03-18T09:12:58.419Z,54.47
2023-03-18T09:15:27.180Z,54.50
2023-03-18T09:18:10.405Z,54.69
2023-03-18T09:20:40.244Z,54.34
2023-03-18T09:23:08.899Z,53.48
2023-03-18T09:25:36.644Z,52.03
2023-03-18T09:28:04.301Z,52.40
2023-03-18T09:30:32.185Z,52.79
2023-03-18T09:32:59.963Z,52.29
2023-03-18T09:35:29.264Z,52.12
2023-03-18T09:37:57.780Z,51.47
2023-03-18T09:40:32.850Z,50.94
2023-03-18T09:43:34.000Z,50.83
2023-03-18T09:46:09.864Z,52.12
2023-03-18T09:48:57.376Z,52.92
2023-03-18T09:51:34.882Z,52.42
2023-03-18T09:54:04.879Z,51.98
2023-03-18T09:56:34.674Z,51.45
2023-03-18T09:59:16.016Z,50.18
2023-03-18T10:01:47.646Z,50.09
2023-03-18T10:04:28.917Z,50.14
2023-03-18T10:07:02.654Z,47.58
2023-03-18T10:09:33.706Z,48.73
2023-03-18T10:12:22.119Z,49.46
2023-03-18T10:15:16.867Z,47.39
2023-03-18T10:17:54.246Z,47.64
2023-03-18T10:20:37.700Z,48.42
2023-03-18T10:23:30.793Z,48.64
2023-03-18T10:26:02.492Z,48.86
2023-03-18T10:28:32.426Z,48.06
2023-03-18T10:31:21.195Z,45.84
2023-03-18T10:33:59.491Z,45.48
2023-03-18T10:36:55.835Z,44.54
2023-03-18T10:39:47.515Z,44.85
2023-03-18T10:42:27.906Z,44.93
2023-03-18T10:44:57.199Z,44.34
2023-03-18T10:47:29.139Z,45.57
2023-03-18T10:50:11.082Z,46.22
2023-03-18T10:52:41.353Z,47.14
2023-03-18T10:55:19.728Z,46.84
2023-03-18T10:57:47.728Z,46.58
2023-03-18T11:00:54.145Z,41.84
2023-03-18T11:03:27.422Z,40.73
2023-03-18T11:05:58.863Z,39.18
2023-03-18T11:08:39.600Z,37.33
2023-03-18T11:11:16.240Z,33.18
2023-03-18T11:14:08.206Z,31.02
2023-03-18T11:16:38.419Z,30.36
2023-03-18T11:19:35.490Z,31.37
2023-03-18T11:22:10.561Z,32.59
2023-03-18T11:24:44.965Z,30.77
2023-03-18T11:27:15.011Z,30.55
2023-03-18T11:29:47.008Z,31.11
2023-03-18T11:32:24.175Z,31.21
2023-03-18T11:34:56.012Z,30.90
2023-03-18T11:37:26.674Z,30.94
2023-03-18T11:39:59.081Z,31.75
2023-03-18T11:42:27.269Z,31.91
2023-03-18T11:44:57.617Z,32.29
2023-03-18T11:47:26.905Z,33.07
2023-03-18T11:49:54.771Z,33.34
2023-03-18T11:52:42.097Z,33.73
2023-03-18T11:55:21.122Z,34.76
2023-03-18T11:58:10.451Z,34.37
2023-03-18T12:00:48.290Z,34.03
2023-03-18T12:03:24.816Z,33.40
2023-03-18T12:06:20.276Z,33.73
2023-03-18T12:09:17.525Z,31.72
2023-03-18T12:12:16.310Z,30.86
2023-03-18T12:15:03.314Z,29.60
2023-03-18T12:17:35.712Z,30.51
2023-03-18T12:20:31.031Z,31.10
2023-03-18T12:22:58.298Z,30.69
2023-03-18T12:25:50.681Z,29.48
2023-03-18T12:28:52.947Z,29.03
2023-03-18T12:31:22.905Z,29.04
2023-03-18T12:33:55.018Z,27.24
2023-03-18T12:36:34.303Z,27.66
2023-03-18T12:39:22.828Z,27.89
2023-03-18T12:42:05.153Z,27.32
2023-03-18T12:44:44.034Z,27.30
2023-03-18T12:47:18.129Z,28.12
2023-03-18T12:50:05.049Z,27.39
2023-03-18T12:52:36.397Z,26.23
2023-03-18T12:55:11.175Z,25.44
2023-03-18T12:57:47.718Z,25.13
2023-03-18T13:00:15.054Z,25.30
2023-03-18T13:03:11.212Z,25.49
2023-03-18T13:05:47.478Z,24.68
2023-03-18T13:08:17.184Z,24.14
2023-03-18T13:10:47.946Z,24.02
2023-03-18T13:13:15.639Z,24.54
2023-03-18T13:15:49.713Z,23.88
2023-03-18T13:18:23.075Z,23.46
2023-03-18T13:20:53.850Z,24.28
2023-03-18T13:23:59.200Z,24.08
2023-03-18T13:26:44.050Z,24.21
2023-03-18T13:29:35.056Z,22.79
2023-03-18T13:32:31.945Z,23.29
2023-03-18T13:35:14.510Z,23.41
2023-03-18T13:38:03.357Z,24.09
2023-03-18T13:40:50.361Z,22.35
2023-03-18T13:43:18.993Z,22.92
2023-03-18T13:45:51.843Z,22.71
2023-03-18T13:48:42.912Z,22.43
2023-03-18T13:51:21.887Z,21.71
2023-03-18T13:53:50.646Z,21.56
2023-03-18T13:56:42.138Z,21.18
2023-03-18T13:59:38.501Z,22.47
2023-03-18T14:02:26.687Z,21.65
2023-03-18T14:04:54.395Z,21.75
2023-03-18T14:07:22.608Z,21.51
2023-03-18T14:10:17.261Z,21.25
2023-03-18T14:12:47.669Z,21.10
2023-03-18T14:15:15.308Z,21.10
2023-03-18T14:17:47.766Z,20.67
2023-03-18T14:20:17.872Z,20.94
2023-03-18T14:23:23.174Z,20.18
2023-03-18T14:25:54.584Z,20.07
2023-03-18T14:28:25.655Z,20.14
2023-03-18T14:30:58.616Z,19.02
2023-03-18T14:33:25.648Z,19.23
2023-03-18T14:35:58.425Z,19.76
2023-03-18T14:38:32.856Z,20.31
2023-03-18T14:41:00.157Z,20.97
2023-03-18T14:43:41.117Z,21.88
2023-03-18T14:46:17.799Z,22.63
2023-03-18T14:48:45.246Z,23.48
2023-03-18T14:51:20.622Z,23.72
2023-03-18T14:54:01.686Z,24.20
2023-03-18T14:56:41.840Z,24.22
2023-03-18T14:59:17.492Z,23.93
2023-03-18T15:01:46.924Z,23.41
2023-03-18T15:04:25.010Z,23.33
2023-03-18T15:06:53.233Z,22.83
2023-03-18T15:09:24.450Z,23.30
2023-03-18T15:11:52.062Z,23.79
2023-03-18T15:14:27.813Z,23.65
2023-03-18T15:17:04.917Z,23.31
2023-03-18T15:19:50.202Z,23.39
2023-03-18T15:22:26.143Z,22.77
2023-03-18T15:24:55.747Z,21.74
2023-03-18T15:27:23.036Z,22.14
2023-03-18T15:29:57.226Z,21.87
2023-03-18T15:32:53.130Z,22.75
2023-03-18T15:35:24.733Z,22.76
2023-03-18T15:38:05.622Z,23.71
2023-03-18T15:40:36.396Z,23.84
2023-03-18T15:43:10.475Z,23.86
2023-03-18T15:46:06.883Z,24.42
2023-03-18T15:48:41.011Z,24.28
2023-03-18T15:51:23.565Z,25.08
2023-03-18T15:53:53.434Z,24.56
2023-03-18T15:56:26.476Z,24.95
2023-03-18T15:59:11.779Z,25.04
2023-03-18T16:01:40.530Z,25.23
2023-03-18T16:04:10.377Z,25.26
2023-03-18T16:06:38.645Z,25.22
2023-03-18T16:09:34.403Z,25.00
2023-03-18T16:12:02.504Z,24.17
2023-03-18T16:14:34.849Z,24.39
2023-03-18T16:17:03.332Z,22.90
2023-03-18T16:19:31.025Z,22.09
2023-03-18T16:21:58.910Z,21.90
2023-03-18T16:24:26.612Z,20.79
2023-03-18T16:26:53.806Z,20.44
2023-03-18T16:29:41.712Z,20.37
2023-03-18T16:32:17.708Z,21.04
2023-03-18T16:34:46.822Z,22.02
2023-03-18T16:37:37.427Z,23.29
2023-03-18T16:40:08.885Z,24.65
2023-03-18T16:42:36.561Z,25.73
2023-03-18T16:45:05.494Z,26.73
2023-03-18T16:47:33.594Z,27.69
2023-03-18T16:50:01.735Z,28.33
2023-03-18T16:52:29.444Z,28.72
2023-03-18T16:54:57.966Z,29.25
2023-03-18T16:57:25.457Z,29.67
2023-03-18T16:59:54.213Z,30.41
2023-03-18T17:02:32.070Z,30.95
2023-03-18T17:05:01.523Z,31.43
2023-03-18T17:07:29.765Z,31.93
2023-03-18T17:09:57.676Z,32.21
2023-03-18T17:12:26.510Z,32.70
2023-03-18T17:14:54.772Z,32.93
2023-03-18T17:17:28.952Z,33.10
2023-03-18T17:19:57.004Z,33.65
2023-03-18T17:22:25.177Z,33.93
2023-03-18T17:24:53.319Z,34.00
2023-03-18T17:27:25.700Z,33.98
2023-03-18T17:29:59.340Z,34.77
2023-03-18T17:32:27.398Z,35.13
2023-03-18T17:34:55.051Z,35.48
2023-03-18T17:37:23.635Z,35.47
2023-03-18T17:39:51.376Z,35.54
2023-03-18T17:42:28.847Z,36.04
2023-03-18T17:44:57.614Z,36.50
2023-03-18T17:47:25.910Z,36.42
2023-03-18T17:49:55.389Z,37.05
2023-03-18T17:52:23.113Z,36.99
2023-03-18T17:54:50.297Z,37.06
2023-03-18T17:57:17.596Z,37.59
2023-03-18T17:59:46.062Z,37.75
2023-03-18T18:02:21.288Z,37.71
2023-03-18T18:04:55.927Z,37.66
2023-03-18T18:07:23.802Z,38.43
2023-03-18T18:09:51.753Z,38.27
2023-03-18T18:12:25.092Z,38.11
2023-03-18T18:14:52.328Z,38.53
2023-03-18T18:17:20.666Z,38.74
2023-03-18T18:19:48.202Z,38.47
2023-03-18T18:22:17.565Z,39.05
2023-03-18T18:24:47.007Z,39.19
2023-03-18T18:27:14.904Z,41.18
2023-03-18T18:29:46.245Z,42.71
2023-03-18T18:32:15.484Z,44.91
2023-03-18T18:34:43.258Z,46.98
2023-03-18T18:37:11.406Z,50.01
2023-03-18T18:39:39.477Z,51.30
2023-03-18T18:42:07.590Z,52.39
2023-03-18T18:44:35.794Z,53.48
2023-03-18T18:47:03.533Z,54.65
2023-03-18T18:49:31.163Z,55.25
2023-03-18T18:52:01.998Z,56.35
2023-03-18T18:54:29.588Z,57.64
2023-03-18T18:56:58.184Z,58.39
2023-03-18T18:59:27.714Z,59.11
2023-03-18T19:01:55.489Z,59.76
2023-03-18T19:04:23.313Z,59.75
2023-03-18T19:06:51.654Z,60.86
2023-03-18T19:09:20.008Z,61.25
2023-03-18T19:11:48.641Z,61.71
2023-03-18T19:14:24.307Z,61.95
2023-03-18T19:16:51.686Z,62.08
2023-03-18T19:19:25.034Z,62.43
2023-03-18T19:21:53.447Z,62.86
2023-03-18T19:24:26.486Z,63.01
2023-03-18T19:26:58.274Z,63.55
2023-03-18T19:29:25.032Z,63.46
2023-03-18T19:31:53.180Z,63.56
2023-03-18T19:34:20.929Z,63.98
2023-03-18T19:36:53.173Z,63.63
2023-03-18T19:39:21.156Z,64.11
2023-03-18T19:41:48.973Z,64.37
2023-03-18T19:44:23.839Z,64.88
2023-03-18T19:46:52.618Z,64.84
2023-03-18T19:49:35.228Z,64.83
2023-03-18T19:52:03.672Z,65.01
2023-03-18T19:54:32.238Z,65.81
2023-03-18T19:57:20.095Z,65.97
2023-03-18T19:59:48.724Z,65.86
2023-03-18T20:02:30.514Z,65.91
2023-03-18T20:04:59.798Z,66.28
2023-03-18T20:07:28.958Z,66.24
2023-03-18T20:09:56.865Z,67.23
2023-03-18T20:12:36.370Z,67.11
2023-03-18T20:15:05.795Z,66.92
2023-03-18T20:17:36.927Z,67.62
2023-03-18T20:20:07.683Z,67.20
2023-03-18T20:22:38.621Z,67.88
2023-03-18T20:25:37.258Z,67.65
2023-03-18T20:28:06.056Z,68.31
2023-03-18T20:30:35.469Z,68.50
2023-03-18T20:33:07.317Z,68.57
2023-03-18T20:35:39.480Z,69.14
2023-03-18T20:38:33.984Z,69.15
2023-03-18T20:41:01.851Z,69.47
2023-03-18T20:43:29.345Z,68.76
2023-03-18T20:45:58.655Z,68.68
2023-03-18T20:48:26.701Z,68.89
2023-03-18T20:50:53.420Z,69.05
2023-03-18T20:53:24.629Z,69.08
2023-03-18T20:55:52.014Z,68.83
2023-03-18T20:58:27.505Z,69.04
2023-03-18T21:00:55.294Z,68.92
2023-03-18T21:03:29.603Z,68.80
2023-03-18T21:05:57.964Z,69.39
2023-03-18T21:08:26.191Z,69.04
2023-03-18T21:10:54.498Z,68.39
2023-03-18T21:13:38.781Z,68.95
2023-03-18T21:16:08.588Z,68.29
2023-03-18T21:18:36.640Z,68.31
2023-03-18T21:21:04.722Z,68.59
2023-03-18T21:23:33.535Z,67.90
2023-03-18T21:26:02.274Z,67.56
2023-03-18T21:28:31.179Z,68.32
2023-03-18T21:30:58.806Z,69.06
2023-03-18T21:33:29.996Z,69.02
2023-03-18T21:35:57.412Z,69.02
2023-03-18T21:38:28.976Z,69.49
2023-03-18T21:40:56.481Z,70.04
2023-03-18T21:43:33.797Z,70.67
2023-03-18T21:46:02.076Z,70.38
2023-03-18T21:48:29.415Z,70.90
2023-03-18T21:50:57.562Z,71.39
2023-03-18T21:53:25.064Z,70.68
2023-03-18T21:55:52.630Z,71.39
2023-03-18T21:58:21.629Z,70.95
2023-03-18T22:01:27.431Z,71.65
2023-03-18T22:03:55.283Z,71.21
2023-03-18T22:06:23.606Z,71.38
2023-03-18T22:08:51.529Z,70.96
2023-03-18T22:11:20.584Z,70.88
2023-03-18T22:13:49.431Z,71.09
2023-03-18T22:16:17.809Z,70.39
2023-03-18T22:18:45.363Z,70.47
2023-03-18T22:21:43.728Z,71.41
2023-03-18T22:24:14.954Z,71.08
2023-03-18T22:26:43.041Z,71.46
2023-03-18T22:29:11.478Z,71.21
2023-03-18T22:31:40.074Z,71.25
2023-03-18T22:34:18.275Z,72.13
2023-03-18T22:36:47.081Z,72.36
2023-03-18T22:39:15.163Z,72.72
2023-03-18T22:41:43.256Z,72.21
2023-03-18T22:44:23.704Z,72.90
2023-03-18T22:46:51.474Z,72.45
2023-03-18T22:49:19.474Z,72.73
2023-03-18T22:51:47.845Z,72.52
2023-03-18T22:54:17.994Z,72.85
2023-03-18T22:56:45.524Z,72.20
2023-03-18T22:59:14.469Z,72.29
2023-03-18T23:01:43.768Z,72.54
2023-03-18T23:04:12.269Z,72.55
2023-03-18T23:06:40.408Z,72.84
2023-03-18T23:09:08.489Z,73.01
2023-03-18T23:11:36.266Z,73.23
2023-03-18T23:14:03.626Z,73.65
2023-03-18T23:16:31.474Z,73.33
2023-03-18T23:18:58.810Z,73.11
2023-03-18T23:21:26.642Z,71.96
2023-03-18T23:23:56.313Z,72.11
2023-03-18T23:26:24.307Z,72.57
2023-03-18T23:28:51.934Z,72.84
2023-03-18T23:31:19.447Z,72.98
2023-03-18T23:33:47.312Z,74.46
2023-03-18T23:36:15.132Z,75.16
2023-03-18T23:38:42.828Z,75.81
2023-03-18T23:41:10.476Z,75.14
2023-03-18T23:43:38.063Z,75.95
2023-03-18T23:46:05.819Z,76.13
2023-03-18T23:48:33.997Z,76.55
2023-03-18T23:51:01.876Z,76.72
2023-03-18T23:53:30.131Z,76.35
2023-03-18T23:55:57.860Z,75.56
2023-03-18T23:58:25.917Z,75.59
